sensor_id;sensor_type;location;lat;lon;timestamp;temperature;humidity
19878;DHT22;10101;52.204;9.910;2023-12-20T00:02:18;7.50;99.90
19878;DHT22;10101;52.204;9.910;2023-12-20T00:04:45;7.50;99.90
19878;DHT22;10101;52.204;9.910;2023-12-20T00:07:11;7.50;99.90
19878;DHT22;10101;52.204;9.910;2023-12-20T00:09:38;7.40;99.90
19878;DHT22;10101;52.204;9.910;2023-12-20T00:12:05;7.50;99.90
19878;DHT22;10101;52.204;9.910;2023-12-20T00:14:33;7.50;99.90
19878;DHT22;10101;52.204;9.910;2023-12-20T00:17:00;7.50;99.90
19878;DHT22;10101;52.204;9.910;2023-12-20T00:19:27;7.50;99.90
19878;DHT22;10101;52.204;9.910;2023-12-20T00:21:54;7.40;99.90
19878;DHT22;10101;52.204;9.910;2023-12-20T00:24:20;7.40;99.90
19878;DHT22;10101;52.204;9.910;2023-12-20T00:26:47;7.40;99.90
19878;DHT22;10101;52.204;9.910;2023-12-20T00:29:14;7.40;99.90
19878;DHT22;10101;52.204;9.910;2023-12-20T00:31:42;7.50;99.90
19878;DHT22;10101;52.204;9.910;2023-12-20T00:34:08;7.50;99.90
19878;DHT22;10101;52.204;9.910;2023-12-20T00:36:35;7.50;99.90
19878;DHT22;10101;52.204;9.910;2023-12-20T00:39:02;7.60;99.90
19878;DHT22;10101;52.204;9.910;2023-12-20T00:41:29;7.50;99.90
19878;DHT22;10101;52.204;9.910;2023-12-20T00:43:55;7.50;99.90
19878;DHT22;10101;52.204;9.910;2023-12-20T00:46:22;7.50;99.90
19878;DHT22;10101;52.204;9.910;2023-12-20T00:48:50;7.40;99.90
19878;DHT22;10101;52.204;9.910;2023-12-20T00:51:17;7.20;99.90
19878;DHT22;10101;52.204;9.910;2023-12-20T00:53:43;7.10;99.90
19878;DHT22;10101;52.204;9.910;2023-12-20T00:56:11;7.10;99.90
19878;DHT22;10101;52.204;9.910;2023-12-20T00:58:38;6.90;99.90
19878;DHT22;10101;52.204;9.910;2023-12-20T01:01:04;6.90;99.90
19878;DHT22;10101;52.204;9.910;2023-12-20T01:03:30;6.70;99.90
19878;DHT22;10101;52.204;9.910;2023-12-20T01:05:58;6.70;99.90
19878;DHT22;10101;52.204;9.910;2023-12-20T01:08:25;6.60;99.90
19878;DHT22;10101;52.204;9.910;2023-12-20T01:10:52;6.60;99.90
19878;DHT22;10101;52.204;9.910;2023-12-20T01:13:18;6.50;99.90
19878;DHT22;10101;52.204;9.910;2023-12-20T01:15:45;6.40;99.90
19878;DHT22;10101;52.204;9.910;2023-12-20T01:18:13;6.40;99.90
19878;DHT22;10101;52.204;9.910;2023-12-20T01:20:39;6.30;99.90
19878;DHT22;10101;52.204;9.910;2023-12-20T01:23:07;6.30;99.90
19878;DHT22;10101;52.204;9.910;2023-12-20T01:25:34;6.30;99.90
19878;DHT22;10101;52.204;9.910;2023-12-20T01:28:01;6.20;99.90
19878;DHT22;10101;52.204;9.910;2023-12-20T01:30:28;6.10;99.90
19878;DHT22;10101;52.204;9.910;2023-12-20T01:32:55;6.00;99.90
19878;DHT22;10101;52.204;9.910;2023-12-20T01:35:22;6.00;99.90
19878;DHT22;10101;52.204;9.910;2023-12-20T01:37:48;6.00;99.90
19878;DHT22;10101;52.204;9.910;2023-12-20T01:40:16;6.00;99.90
19878;DHT22;10101;52.204;9.910;2023-12-20T01:42:43;6.00;99.90
19878;DHT22;10101;52.204;9.910;2023-12-20T01:45:10;5.90;99.90
19878;DHT22;10101;52.204;9.910;2023-12-20T01:47:39;5.90;99.90
19878;DHT22;10101;52.204;9.910;2023-12-20T01:50:07;5.90;99.90
19878;DHT22;10101;52.204;9.910;2023-12-20T01:52:34;5.80;99.90
19878;DHT22;10101;52.204;9.910;2023-12-20T01:55:02;5.90;99.90
19878;DHT22;10101;52.204;9.910;2023-12-20T01:57:33;5.80;99.90
19878;DHT22;10101;52.204;9.910;2023-12-20T02:00:00;5.80;99.90
19878;DHT22;10101;52.204;9.910;2023-12-20T02:02:29;5.80;99.90
19878;DHT22;10101;52.204;9.910;2023-12-20T02:04:56;5.80;99.90
19878;DHT22;10101;52.204;9.910;2023-12-20T02:07:23;5.70;99.90
19878;DHT22;10101;52.204;9.910;2023-12-20T02:09:50;5.80;99.90
19878;DHT22;10101;52.204;9.910;2023-12-20T02:12:16;5.80;99.90
19878;DHT22;10101;52.204;9.910;2023-12-20T02:14:44;5.90;99.90
19878;DHT22;10101;52.204;9.910;2023-12-20T02:17:11;5.90;99.90
19878;DHT22;10101;52.204;9.910;2023-12-20T02:19:38;5.90;99.90
19878;DHT22;10101;52.204;9.910;2023-12-20T02:22:08;5.80;99.90
19878;DHT22;10101;52.204;9.910;2023-12-20T02:24:34;5.80;99.90
19878;DHT22;10101;52.204;9.910;2023-12-20T02:27:01;5.80;99.90
19878;DHT22;10101;52.204;9.910;2023-12-20T02:29:28;5.90;99.90
19878;DHT22;10101;52.204;9.910;2023-12-20T02:31:55;5.90;99.90
19878;DHT22;10101;52.204;9.910;2023-12-20T02:34:21;5.80;99.90
19878;DHT22;10101;52.204;9.910;2023-12-20T02:36:48;5.80;99.90
19878;DHT22;10101;52.204;9.910;2023-12-20T02:39:16;5.70;99.90
19878;DHT22;10101;52.204;9.910;2023-12-20T02:41:43;5.70;99.90
19878;DHT22;10101;52.204;9.910;2023-12-20T02:44:10;5.60;99.90
19878;DHT22;10101;52.204;9.910;2023-12-20T02:46:37;5.70;99.90
19878;DHT22;10101;52.204;9.910;2023-12-20T02:49:03;5.50;99.90
19878;DHT22;10101;52.204;9.910;2023-12-20T02:51:30;5.50;99.90
19878;DHT22;10101;52.204;9.910;2023-12-20T02:53:57;5.40;99.90
19878;DHT22;10101;52.204;9.910;2023-12-20T02:56:25;5.50;99.90
19878;DHT22;10101;52.204;9.910;2023-12-20T02:58:52;5.50;99.90
19878;DHT22;10101;52.204;9.910;2023-12-20T03:01:18;5.50;99.90
19878;DHT22;10101;52.204;9.910;2023-12-20T03:03:45;5.50;99.90
19878;DHT22;10101;52.204;9.910;2023-12-20T03:06:16;5.50;99.90
19878;DHT22;10101;52.204;9.910;2023-12-20T03:08:43;5.60;99.90
19878;DHT22;10101;52.204;9.910;2023-12-20T03:11:10;5.60;99.90
19878;DHT22;10101;52.204;9.910;2023-12-20T03:13:38;5.60;99.90
19878;DHT22;10101;52.204;9.910;2023-12-20T03:16:08;5.70;99.90
19878;DHT22;10101;52.204;9.910;2023-12-20T03:18:35;5.60;99.90
19878;DHT22;10101;52.204;9.910;2023-12-20T03:21:02;5.60;99.90
19878;DHT22;10101;52.204;9.910;2023-12-20T03:23:29;5.50;99.90
19878;DHT22;10101;52.204;9.910;2023-12-20T03:25:57;5.50;99.90
19878;DHT22;10101;52.204;9.910;2023-12-20T03:28:24;5.50;99.90
19878;DHT22;10101;52.204;9.910;2023-12-20T03:30:53;5.30;99.90
19878;DHT22;10101;52.204;9.910;2023-12-20T03:33:20;5.30;99.90
19878;DHT22;10101;52.204;9.910;2023-12-20T03:35:46;5.20;99.90
19878;DHT22;10101;52.204;9.910;2023-12-20T03:38:13;5.30;99.90
19878;DHT22;10101;52.204;9.910;2023-12-20T03:40:40;5.30;99.90
19878;DHT22;10101;52.204;9.910;2023-12-20T03:43:07;5.30;99.90
19878;DHT22;10101;52.204;9.910;2023-12-20T03:45:33;5.20;99.90
19878;DHT22;10101;52.204;9.910;2023-12-20T03:48:01;5.20;99.90
19878;DHT22;10101;52.204;9.910;2023-12-20T03:50:29;5.10;99.90
19878;DHT22;10101;52.204;9.910;2023-12-20T03:52:55;5.10;99.90
19878;DHT22;10101;52.204;9.910;2023-12-20T03:55:22;5.10;99.90
19878;DHT22;10101;52.204;9.910;2023-12-20T03:57:49;5.10;99.90
19878;DHT22;10101;52.204;9.910;2023-12-20T04:00:16;5.40;99.90
19878;DHT22;10101;52.204;9.910;2023-12-20T04:02:42;5.40;99.90
19878;DHT22;10101;52.204;9.910;2023-12-20T04:05:11;5.30;99.90
19878;DHT22;10101;52.204;9.910;2023-12-20T04:07:38;5.40;99.90
19878;DHT22;10101;52.204;9.910;2023-12-20T04:10:05;5.40;99.90
19878;DHT22;10101;52.204;9.910;2023-12-20T04:12:32;5.50;99.90
19878;DHT22;10101;52.204;9.910;2023-12-20T04:14:59;5.60;99.90
19878;DHT22;10101;52.204;9.910;2023-12-20T04:17:26;5.60;99.90
19878;DHT22;10101;52.204;9.910;2023-12-20T04:19:53;5.60;99.90
19878;DHT22;10101;52.204;9.910;2023-12-20T04:22:21;5.60;99.90
19878;DHT22;10101;52.204;9.910;2023-12-20T04:24:47;5.60;99.90
19878;DHT22;10101;52.204;9.910;2023-12-20T04:27:14;5.60;99.90
19878;DHT22;10101;52.204;9.910;2023-12-20T04:29:41;5.80;1.00
19878;DHT22;10101;52.204;9.910;2023-12-20T04:32:08;5.70;1.00
19878;DHT22;10101;52.204;9.910;2023-12-20T04:34:35;5.80;99.90
19878;DHT22;10101;52.204;9.910;2023-12-20T04:37:02;5.80;1.00
19878;DHT22;10101;52.204;9.910;2023-12-20T04:39:30;5.70;1.00
19878;DHT22;10101;52.204;9.910;2023-12-20T04:41:57;5.70;1.00
19878;DHT22;10101;52.204;9.910;2023-12-20T04:44:24;5.80;99.90
19878;DHT22;10101;52.204;9.910;2023-12-20T04:46:50;5.90;1.00
19878;DHT22;10101;52.204;9.910;2023-12-20T04:49:17;5.90;99.90
19878;DHT22;10101;52.204;9.910;2023-12-20T04:51:44;6.00;99.90
19878;DHT22;10101;52.204;9.910;2023-12-20T04:54:10;5.90;99.90
19878;DHT22;10101;52.204;9.910;2023-12-20T04:56:40;5.90;99.90
19878;DHT22;10101;52.204;9.910;2023-12-20T04:59:07;5.90;1.00
19878;DHT22;10101;52.204;9.910;2023-12-20T05:01:34;5.90;1.00
19878;DHT22;10101;52.204;9.910;2023-12-20T05:04:00;5.80;1.00
19878;DHT22;10101;52.204;9.910;2023-12-20T05:06:27;5.70;68.00
19878;DHT22;10101;52.204;9.910;2023-12-20T05:08:54;5.80;1.00
19878;DHT22;10101;52.204;9.910;2023-12-20T05:11:20;5.80;99.90
19878;DHT22;10101;52.204;9.910;2023-12-20T05:13:49;5.90;1.00
19878;DHT22;10101;52.204;9.910;2023-12-20T05:16:15;5.80;1.00
19878;DHT22;10101;52.204;9.910;2023-12-20T05:18:43;5.80;83.70
19878;DHT22;10101;52.204;9.910;2023-12-20T05:21:10;5.80;1.00
19878;DHT22;10101;52.204;9.910;2023-12-20T05:23:36;5.80;1.00
19878;DHT22;10101;52.204;9.910;2023-12-20T05:26:03;5.90;1.00
19878;DHT22;10101;52.204;9.910;2023-12-20T05:28:30;5.80;1.00
19878;DHT22;10101;52.204;9.910;2023-12-20T05:30:58;5.90;1.00
19878;DHT22;10101;52.204;9.910;2023-12-20T05:33:25;6.00;99.90
19878;DHT22;10101;52.204;9.910;2023-12-20T05:35:51;6.00;99.90
19878;DHT22;10101;52.204;9.910;2023-12-20T05:38:18;6.00;1.00
19878;DHT22;10101;52.204;9.910;2023-12-20T05:40:45;6.00;99.50
19878;DHT22;10101;52.204;9.910;2023-12-20T05:43:12;5.90;1.00
19878;DHT22;10101;52.204;9.910;2023-12-20T05:45:38;6.00;1.00
19878;DHT22;10101;52.204;9.910;2023-12-20T05:48:07;5.90;1.00
19878;DHT22;10101;52.204;9.910;2023-12-20T05:50:33;6.00;91.40
19878;DHT22;10101;52.204;9.910;2023-12-20T05:53:01;6.00;1.00
19878;DHT22;10101;52.204;9.910;2023-12-20T05:55:27;6.00;1.00
19878;DHT22;10101;52.204;9.910;2023-12-20T05:57:54;6.00;13.60
19878;DHT22;10101;52.204;9.910;2023-12-20T06:00:21;5.90;99.90
19878;DHT22;10101;52.204;9.910;2023-12-20T06:02:48;5.90;99.90
19878;DHT22;10101;52.204;9.910;2023-12-20T06:05:16;5.80;1.00
19878;DHT22;10101;52.204;9.910;2023-12-20T06:07:42;5.80;1.00
19878;DHT22;10101;52.204;9.910;2023-12-20T06:10:10;5.90;99.90
19878;DHT22;10101;52.204;9.910;2023-12-20T06:12:37;5.80;1.00
19878;DHT22;10101;52.204;9.910;2023-12-20T06:15:04;5.80;99.90
19878;DHT22;10101;52.204;9.910;2023-12-20T06:17:31;5.70;99.90
19878;DHT22;10101;52.204;9.910;2023-12-20T06:19:58;5.70;99.90
19878;DHT22;10101;52.204;9.910;2023-12-20T06:22:26;5.70;99.90
19878;DHT22;10101;52.204;9.910;2023-12-20T06:24:53;5.60;99.90
19878;DHT22;10101;52.204;9.910;2023-12-20T06:27:20;5.60;99.90
19878;DHT22;10101;52.204;9.910;2023-12-20T06:29:46;5.60;99.90
19878;DHT22;10101;52.204;9.910;2023-12-20T06:32:13;5.60;99.90
19878;DHT22;10101;52.204;9.910;2023-12-20T06:34:40;5.70;99.90
19878;DHT22;10101;52.204;9.910;2023-12-20T06:37:07;5.70;99.90
19878;DHT22;10101;52.204;9.910;2023-12-20T06:39:35;5.70;99.90
19878;DHT22;10101;52.204;9.910;2023-12-20T06:42:02;5.80;99.90
19878;DHT22;10101;52.204;9.910;2023-12-20T06:44:29;5.90;1.00
19878;DHT22;10101;52.204;9.910;2023-12-20T06:46:57;5.80;1.00
19878;DHT22;10101;52.204;9.910;2023-12-20T06:49:23;5.80;1.00
19878;DHT22;10101;52.204;9.910;2023-12-20T06:51:50;5.70;1.00
19878;DHT22;10101;52.204;9.910;2023-12-20T06:54:17;5.60;1.00
19878;DHT22;10101;52.204;9.910;2023-12-20T06:56:45;5.50;99.90
19878;DHT22;10101;52.204;9.910;2023-12-20T06:59:11;5.60;99.90
19878;DHT22;10101;52.204;9.910;2023-12-20T07:01:38;5.50;99.90
19878;DHT22;10101;52.204;9.910;2023-12-20T07:04:05;5.60;99.90
19878;DHT22;10101;52.204;9.910;2023-12-20T07:06:32;5.70;99.90
19878;DHT22;10101;52.204;9.910;2023-12-20T07:08:58;5.70;99.90
19878;DHT22;10101;52.204;9.910;2023-12-20T07:11:25;5.60;99.90
19878;DHT22;10101;52.204;9.910;2023-12-20T07:13:53;5.50;99.90
19878;DHT22;10101;52.204;9.910;2023-12-20T07:16:20;5.60;23.70
19878;DHT22;10101;52.204;9.910;2023-12-20T07:18:48;5.70;1.00
19878;DHT22;10101;52.204;9.910;2023-12-20T07:21:14;5.70;1.00
19878;DHT22;10101;52.204;9.910;2023-12-20T07:23:41;5.60;1.00
19878;DHT22;10101;52.204;9.910;2023-12-20T07:26:08;5.70;1.00
19878;DHT22;10101;52.204;9.910;2023-12-20T07:28:35;5.80;1.00
19878;DHT22;10101;52.204;9.910;2023-12-20T07:31:03;5.90;1.00
19878;DHT22;10101;52.204;9.910;2023-12-20T07:33:30;5.90;1.00
19878;DHT22;10101;52.204;9.910;2023-12-20T07:35:56;5.90;1.00
19878;DHT22;10101;52.204;9.910;2023-12-20T07:38:23;5.90;99.90
19878;DHT22;10101;52.204;9.910;2023-12-20T07:40:50;5.70;1.00
19878;DHT22;10101;52.204;9.910;2023-12-20T07:43:17;5.60;70.20
19878;DHT22;10101;52.204;9.910;2023-12-20T07:45:43;5.60;1.00
19878;DHT22;10101;52.204;9.910;2023-12-20T07:48:11;5.60;1.00
19878;DHT22;10101;52.204;9.910;2023-12-20T07:50:38;5.70;1.00
19878;DHT22;10101;52.204;9.910;2023-12-20T07:53:05;5.80;1.00
19878;DHT22;10101;52.204;9.910;2023-12-20T07:55:32;5.90;1.00
19878;DHT22;10101;52.204;9.910;2023-12-20T07:57:59;5.90;1.00
19878;DHT22;10101;52.204;9.910;2023-12-20T08:00:25;5.90;99.90
19878;DHT22;10101;52.204;9.910;2023-12-20T08:02:52;5.90;99.90
19878;DHT22;10101;52.204;9.910;2023-12-20T08:05:20;5.90;1.00
19878;DHT22;10101;52.204;9.910;2023-12-20T08:07:47;5.90;44.80
19878;DHT22;10101;52.204;9.910;2023-12-20T08:10:14;5.90;99.90
19878;DHT22;10101;52.204;9.910;2023-12-20T08:12:40;6.00;99.90
19878;DHT22;10101;52.204;9.910;2023-12-20T08:15:07;6.00;99.90
19878;DHT22;10101;52.204;9.910;2023-12-20T08:17:34;6.00;99.90
19878;DHT22;10101;52.204;9.910;2023-12-20T08:20:01;6.00;1.00
19878;DHT22;10101;52.204;9.910;2023-12-20T08:22:29;6.00;99.90
19878;DHT22;10101;52.204;9.910;2023-12-20T08:24:55;6.00;99.90
19878;DHT22;10101;52.204;9.910;2023-12-20T08:27:22;6.10;1.00
19878;DHT22;10101;52.204;9.910;2023-12-20T08:29:51;6.10;1.00
19878;DHT22;10101;52.204;9.910;2023-12-20T08:32:17;6.20;1.00
19878;DHT22;10101;52.204;9.910;2023-12-20T08:34:44;6.10;99.90
19878;DHT22;10101;52.204;9.910;2023-12-20T08:37:11;6.20;99.90
19878;DHT22;10101;52.204;9.910;2023-12-20T08:39:39;6.10;99.90
19878;DHT22;10101;52.204;9.910;2023-12-20T08:42:06;6.00;1.00
19878;DHT22;10101;52.204;9.910;2023-12-20T08:44:32;6.00;1.00
19878;DHT22;10101;52.204;9.910;2023-12-20T08:46:59;6.10;99.90
19878;DHT22;10101;52.204;9.910;2023-12-20T08:49:26;6.20;1.00
19878;DHT22;10101;52.204;9.910;2023-12-20T08:51:53;6.10;99.90
19878;DHT22;10101;52.204;9.910;2023-12-20T08:54:20;6.20;1.00
19878;DHT22;10101;52.204;9.910;2023-12-20T08:56:48;6.30;1.00
19878;DHT22;10101;52.204;9.910;2023-12-20T08:59:14;6.20;99.90
19878;DHT22;10101;52.204;9.910;2023-12-20T09:01:41;6.30;1.00
19878;DHT22;10101;52.204;9.910;2023-12-20T09:04:08;6.40;99.90
19878;DHT22;10101;52.204;9.910;2023-12-20T09:06:34;6.40;99.90
19878;DHT22;10101;52.204;9.910;2023-12-20T09:09:01;6.40;99.90
19878;DHT22;10101;52.204;9.910;2023-12-20T09:11:29;6.30;1.00
19878;DHT22;10101;52.204;9.910;2023-12-20T09:13:57;6.30;81.40
19878;DHT22;10101;52.204;9.910;2023-12-20T09:16:24;6.30;99.90
19878;DHT22;10101;52.204;9.910;2023-12-20T09:18:50;6.20;1.00
19878;DHT22;10101;52.204;9.910;2023-12-20T09:21:17;6.20;1.00
19878;DHT22;10101;52.204;9.910;2023-12-20T09:23:44;6.20;1.00
19878;DHT22;10101;52.204;9.910;2023-12-20T09:26:10;6.30;1.00
19878;DHT22;10101;52.204;9.910;2023-12-20T09:28:37;6.30;95.90
19878;DHT22;10101;52.204;9.910;2023-12-20T09:31:07;6.30;99.90
19878;DHT22;10101;52.204;9.910;2023-12-20T09:33:34;6.30;99.90
19878;DHT22;10101;52.204;9.910;2023-12-20T09:36:01;6.40;1.00
19878;DHT22;10101;52.204;9.910;2023-12-20T09:38:28;6.50;1.00
19878;DHT22;10101;52.204;9.910;2023-12-20T09:40:55;6.40;1.00
19878;DHT22;10101;52.204;9.910;2023-12-20T09:43:24;6.40;1.00
19878;DHT22;10101;52.204;9.910;2023-12-20T09:45:53;6.40;1.00
19878;DHT22;10101;52.204;9.910;2023-12-20T09:48:21;6.40;99.90
19878;DHT22;10101;52.204;9.910;2023-12-20T09:50:48;6.40;1.00
19878;DHT22;10101;52.204;9.910;2023-12-20T09:53:15;6.40;99.90
19878;DHT22;10101;52.204;9.910;2023-12-20T09:55:44;6.50;99.90
19878;DHT22;10101;52.204;9.910;2023-12-20T09:58:11;6.60;1.00
19878;DHT22;10101;52.204;9.910;2023-12-20T10:00:38;6.70;1.00
19878;DHT22;10101;52.204;9.910;2023-12-20T10:03:06;6.70;1.00
19878;DHT22;10101;52.204;9.910;2023-12-20T10:05:34;6.70;1.00
19878;DHT22;10101;52.204;9.910;2023-12-20T10:08:01;6.80;99.90
19878;DHT22;10101;52.204;9.910;2023-12-20T10:10:28;6.80;1.00
19878;DHT22;10101;52.204;9.910;2023-12-20T10:13:02;6.80;1.00
19878;DHT22;10101;52.204;9.910;2023-12-20T10:15:29;6.70;1.00
19878;DHT22;10101;52.204;9.910;2023-12-20T10:17:57;6.70;1.00
19878;DHT22;10101;52.204;9.910;2023-12-20T10:20:24;6.70;1.00
19878;DHT22;10101;52.204;9.910;2023-12-20T10:22:52;6.80;1.00
19878;DHT22;10101;52.204;9.910;2023-12-20T10:25:20;6.70;1.00
19878;DHT22;10101;52.204;9.910;2023-12-20T10:27:47;6.70;99.90
19878;DHT22;10101;52.204;9.910;2023-12-20T10:30:14;6.70;99.90
19878;DHT22;10101;52.204;9.910;2023-12-20T10:32:41;6.70;1.00
19878;DHT22;10101;52.204;9.910;2023-12-20T10:35:08;6.70;69.90
19878;DHT22;10101;52.204;9.910;2023-12-20T10:37:35;6.60;84.40
19878;DHT22;10101;52.204;9.910;2023-12-20T10:40:04;6.70;99.90
19878;DHT22;10101;52.204;9.910;2023-12-20T10:42:32;6.80;1.00
19878;DHT22;10101;52.204;9.910;2023-12-20T10:44:59;6.80;99.90
19878;DHT22;10101;52.204;9.910;2023-12-20T10:47:26;6.90;1.00
19878;DHT22;10101;52.204;9.910;2023-12-20T10:49:54;6.90;1.00
19878;DHT22;10101;52.204;9.910;2023-12-20T10:52:23;6.90;1.00
19878;DHT22;10101;52.204;9.910;2023-12-20T10:54:50;6.90;99.90
19878;DHT22;10101;52.204;9.910;2023-12-20T10:57:18;6.80;99.90
19878;DHT22;10101;52.204;9.910;2023-12-20T10:59:45;6.80;99.90
19878;DHT22;10101;52.204;9.910;2023-12-20T11:02:15;6.90;1.00
19878;DHT22;10101;52.204;9.910;2023-12-20T11:04:47;6.90;97.90
19878;DHT22;10101;52.204;9.910;2023-12-20T11:07:21;6.90;1.00
19878;DHT22;10101;52.204;9.910;2023-12-20T11:09:56;6.90;1.00
19878;DHT22;10101;52.204;9.910;2023-12-20T11:12:35;6.90;79.20
19878;DHT22;10101;52.204;9.910;2023-12-20T11:15:04;6.90;99.90
19878;DHT22;10101;52.204;9.910;2023-12-20T11:17:32;6.70;1.00
19878;DHT22;10101;52.204;9.910;2023-12-20T11:20:07;6.50;1.00
19878;DHT22;10101;52.204;9.910;2023-12-20T11:22:36;6.50;99.90
19878;DHT22;10101;52.204;9.910;2023-12-20T11:25:05;6.40;99.90
19878;DHT22;10101;52.204;9.910;2023-12-20T11:27:35;6.50;99.90
19878;DHT22;10101;52.204;9.910;2023-12-20T11:30:03;6.40;99.90
19878;DHT22;10101;52.204;9.910;2023-12-20T11:32:34;6.40;99.90
19878;DHT22;10101;52.204;9.910;2023-12-20T11:35:17;6.40;99.90
19878;DHT22;10101;52.204;9.910;2023-12-20T11:37:45;6.40;99.90
19878;DHT22;10101;52.204;9.910;2023-12-20T11:40:14;6.40;99.90
19878;DHT22;10101;52.204;9.910;2023-12-20T11:42:43;6.40;99.90
19878;DHT22;10101;52.204;9.910;2023-12-20T11:45:13;6.40;99.90
19878;DHT22;10101;52.204;9.910;2023-12-20T11:47:40;6.40;99.90
19878;DHT22;10101;52.204;9.910;2023-12-20T11:50:08;6.40;99.90
19878;DHT22;10101;52.204;9.910;2023-12-20T11:52:35;6.50;99.90
19878;DHT22;10101;52.204;9.910;2023-12-20T11:55:02;6.50;99.90
19878;DHT22;10101;52.204;9.910;2023-12-20T11:57:30;6.50;99.90
19878;DHT22;10101;52.204;9.910;2023-12-20T11:59:58;6.40;99.90
19878;DHT22;10101;52.204;9.910;2023-12-20T12:02:25;6.40;99.90
19878;DHT22;10101;52.204;9.910;2023-12-20T12:04:52;6.30;99.90
19878;DHT22;10101;52.204;9.910;2023-12-20T12:07:18;6.40;99.90
19878;DHT22;10101;52.204;9.910;2023-12-20T12:09:45;6.30;99.90
19878;DHT22;10101;52.204;9.910;2023-12-20T12:12:13;6.30;99.90
19878;DHT22;10101;52.204;9.910;2023-12-20T12:14:40;5.20;99.90
19878;DHT22;10101;52.204;9.910;2023-12-20T12:17:11;4.90;99.90
19878;DHT22;10101;52.204;9.910;2023-12-20T12:19:38;4.80;99.90
19878;DHT22;10101;52.204;9.910;2023-12-20T12:22:05;4.90;99.90
19878;DHT22;10101;52.204;9.910;2023-12-20T12:24:34;5.30;99.90
19878;DHT22;10101;52.204;9.910;2023-12-20T12:27:00;5.30;99.90
19878;DHT22;10101;52.204;9.910;2023-12-20T12:29:27;5.20;99.90
19878;DHT22;10101;52.204;9.910;2023-12-20T12:31:54;5.10;99.90
19878;DHT22;10101;52.204;9.910;2023-12-20T12:34:23;4.90;99.90
19878;DHT22;10101;52.204;9.910;2023-12-20T12:36:50;4.80;99.90
19878;DHT22;10101;52.204;9.910;2023-12-20T12:39:18;4.70;99.90
19878;DHT22;10101;52.204;9.910;2023-12-20T12:41:45;4.70;99.90
19878;DHT22;10101;52.204;9.910;2023-12-20T12:44:11;4.70;99.90
19878;DHT22;10101;52.204;9.910;2023-12-20T12:46:38;4.70;99.90
19878;DHT22;10101;52.204;9.910;2023-12-20T12:49:05;4.70;99.90
19878;DHT22;10101;52.204;9.910;2023-12-20T12:51:33;4.90;99.90
19878;DHT22;10101;52.204;9.910;2023-12-20T12:53:59;5.00;99.90
19878;DHT22;10101;52.204;9.910;2023-12-20T12:56:26;5.00;99.90
19878;DHT22;10101;52.204;9.910;2023-12-20T12:58:53;4.70;99.90
19878;DHT22;10101;52.204;9.910;2023-12-20T13:01:20;4.60;99.90
19878;DHT22;10101;52.204;9.910;2023-12-20T13:03:47;4.70;99.90
19878;DHT22;10101;52.204;9.910;2023-12-20T13:06:14;4.70;99.90
19878;DHT22;10101;52.204;9.910;2023-12-20T13:08:42;4.80;99.90
19878;DHT22;10101;52.204;9.910;2023-12-20T13:11:09;4.90;99.90
19878;DHT22;10101;52.204;9.910;2023-12-20T13:13:36;5.00;99.90
19878;DHT22;10101;52.204;9.910;2023-12-20T13:16:03;5.00;99.90
19878;DHT22;10101;52.204;9.910;2023-12-20T13:18:30;5.20;99.90
19878;DHT22;10101;52.204;9.910;2023-12-20T13:20:57;5.20;99.90
19878;DHT22;10101;52.204;9.910;2023-12-20T13:23:24;5.30;99.90
19878;DHT22;10101;52.204;9.910;2023-12-20T13:25:52;5.30;99.90
19878;DHT22;10101;52.204;9.910;2023-12-20T13:28:19;5.40;99.90
19878;DHT22;10101;52.204;9.910;2023-12-20T13:30:45;5.50;99.90
19878;DHT22;10101;52.204;9.910;2023-12-20T13:33:12;5.60;1.00
19878;DHT22;10101;52.204;9.910;2023-12-20T13:35:39;5.60;1.00
19878;DHT22;10101;52.204;9.910;2023-12-20T13:38:05;5.70;99.90
19878;DHT22;10101;52.204;9.910;2023-12-20T13:40:33;5.70;1.00
19878;DHT22;10101;52.204;9.910;2023-12-20T13:43:01;5.70;1.00
19878;DHT22;10101;52.204;9.910;2023-12-20T13:45:28;5.80;1.00
19878;DHT22;10101;52.204;9.910;2023-12-20T13:47:55;5.80;1.00
19878;DHT22;10101;52.204;9.910;2023-12-20T13:50:22;5.80;1.00
19878;DHT22;10101;52.204;9.910;2023-12-20T13:52:48;5.90;1.00
19878;DHT22;10101;52.204;9.910;2023-12-20T13:55:15;5.90;1.00
19878;DHT22;10101;52.204;9.910;2023-12-20T13:57:42;5.90;1.00
19878;DHT22;10101;52.204;9.910;2023-12-20T14:00:11;5.90;1.00
19878;DHT22;10101;52.204;9.910;2023-12-20T14:02:40;6.00;99.90
19878;DHT22;10101;52.204;9.910;2023-12-20T14:05:08;5.90;99.90
19878;DHT22;10101;52.204;9.910;2023-12-20T14:07:35;6.00;99.90
19878;DHT22;10101;52.204;9.910;2023-12-20T14:10:02;5.90;1.00
19878;DHT22;10101;52.204;9.910;2023-12-20T14:12:29;5.90;1.00
19878;DHT22;10101;52.204;9.910;2023-12-20T14:14:57;6.00;1.00
19878;DHT22;10101;52.204;9.910;2023-12-20T14:17:25;6.00;1.00
19878;DHT22;10101;52.204;9.910;2023-12-20T14:19:52;5.90;99.90
19878;DHT22;10101;52.204;9.910;2023-12-20T14:22:20;5.90;99.90
19878;DHT22;10101;52.204;9.910;2023-12-20T14:24:46;5.90;1.00
19878;DHT22;10101;52.204;9.910;2023-12-20T14:27:14;5.80;1.00
19878;DHT22;10101;52.204;9.910;2023-12-20T14:29:41;5.90;99.90
19878;DHT22;10101;52.204;9.910;2023-12-20T14:32:07;5.90;1.00
19878;DHT22;10101;52.204;9.910;2023-12-20T14:34:36;5.90;99.90
19878;DHT22;10101;52.204;9.910;2023-12-20T14:37:03;5.90;99.90
19878;DHT22;10101;52.204;9.910;2023-12-20T14:39:30;5.90;1.00
19878;DHT22;10101;52.204;9.910;2023-12-20T14:41:57;5.90;1.00
19878;DHT22;10101;52.204;9.910;2023-12-20T14:44:24;5.90;99.90
19878;DHT22;10101;52.204;9.910;2023-12-20T14:46:50;5.90;99.90
19878;DHT22;10101;52.204;9.910;2023-12-20T14:49:17;5.90;1.00
19878;DHT22;10101;52.204;9.910;2023-12-20T14:51:45;5.90;12.70
19878;DHT22;10101;52.204;9.910;2023-12-20T14:54:13;6.00;99.90
19878;DHT22;10101;52.204;9.910;2023-12-20T14:56:40;5.90;99.90
19878;DHT22;10101;52.204;9.910;2023-12-20T14:59:07;6.00;1.00
19878;DHT22;10101;52.204;9.910;2023-12-20T15:01:34;6.00;1.00
19878;DHT22;10101;52.204;9.910;2023-12-20T15:04:01;6.00;99.90
19878;DHT22;10101;52.204;9.910;2023-12-20T15:06:29;6.00;1.00
19878;DHT22;10101;52.204;9.910;2023-12-20T15:08:58;6.00;1.00
19878;DHT22;10101;52.204;9.910;2023-12-20T15:11:25;6.00;99.90
19878;DHT22;10101;52.204;9.910;2023-12-20T15:13:52;6.00;1.00
19878;DHT22;10101;52.204;9.910;2023-12-20T15:16:21;6.00;1.00
19878;DHT22;10101;52.204;9.910;2023-12-20T15:18:48;5.90;1.00
19878;DHT22;10101;52.204;9.910;2023-12-20T15:21:16;5.90;1.00
19878;DHT22;10101;52.204;9.910;2023-12-20T15:23:42;5.80;99.90
19878;DHT22;10101;52.204;9.910;2023-12-20T15:26:19;5.80;1.00
19878;DHT22;10101;52.204;9.910;2023-12-20T15:28:46;5.80;99.90
19878;DHT22;10101;52.204;9.910;2023-12-20T15:31:13;5.70;99.90
19878;DHT22;10101;52.204;9.910;2023-12-20T15:33:39;5.70;1.00
19878;DHT22;10101;52.204;9.910;2023-12-20T15:36:06;5.70;1.00
19878;DHT22;10101;52.204;9.910;2023-12-20T15:38:33;5.80;99.90
19878;DHT22;10101;52.204;9.910;2023-12-20T15:41:01;5.80;99.90
19878;DHT22;10101;52.204;9.910;2023-12-20T15:43:29;5.80;99.90
19878;DHT22;10101;52.204;9.910;2023-12-20T15:45:56;5.70;99.90
19878;DHT22;10101;52.204;9.910;2023-12-20T15:48:23;5.80;1.00
19878;DHT22;10101;52.204;9.910;2023-12-20T15:50:55;5.80;1.00